createdAt,value
2022-10-31T00:03:14.897Z,6.97
2022-10-31T00:08:19.195Z,7.13
2022-10-31T00:13:23.879Z,7.40
2022-10-31T00:18:27.205Z,7.23
2022-10-31T00:23:30.808Z,7.00
2022-10-31T00:28:36.166Z,6.90
2022-10-31T00:33:41.412Z,6.90
2022-10-31T00:38:45.522Z,6.70
2022-10-31T00:43:50.276Z,7.50
2022-10-31T00:48:53.729Z,6.67
2022-10-31T00:53:57.073Z,6.25
2022-10-31T00:59:01.854Z,6.75
2022-10-31T01:04:05.376Z,6.78
2022-10-31T01:09:09.687Z,6.10
2022-10-31T01:14:14.483Z,5.90
2022-10-31T01:19:17.897Z,6.40
2022-10-31T01:24:21.223Z,8.00
2022-10-31T01:29:26.049Z,7.40
2022-10-31T01:34:29.496Z,7.15
2022-10-31T01:39:32.893Z,6.85
2022-10-31T01:45:12.125Z,6.80
2022-10-31T01:50:23.961Z,6.60
2022-10-31T01:55:30.521Z,6.78
2022-10-31T02:00:35.642Z,6.50
2022-10-31T02:05:39.394Z,6.90
2022-10-31T02:10:44.593Z,7.20
2022-10-31T02:15:52.076Z,6.82
2022-10-31T02:21:02.936Z,7.53
2022-10-31T02:26:38.428Z,7.82
2022-10-31T02:31:48.663Z,7.13
2022-10-31T02:36:59.104Z,6.78
2022-10-31T02:42:09.992Z,6.80
2022-10-31T02:47:18.489Z,6.05
2022-10-31T02:52:23.632Z,6.03
2022-10-31T02:57:30.309Z,5.43
2022-10-31T03:02:54.944Z,4.80
2022-10-31T03:08:05.329Z,5.57
2022-10-31T03:13:13.887Z,6.53
2022-10-31T03:18:28.033Z,5.85
2022-10-31T03:23:34.255Z,5.60
2022-10-31T03:28:43.225Z,7.05
2022-10-31T03:33:51.819Z,6.03
2022-10-31T03:38:56.343Z,5.95
2022-10-31T03:44:03.912Z,6.60
2022-10-31T03:54:17.957Z,6.32
2022-10-31T03:59:26.613Z,6.47
2022-10-31T04:04:32.070Z,6.30
2022-10-31T04:09:38.833Z,6.97
2022-10-31T04:14:43.658Z,6.30
2022-10-31T04:19:48.386Z,6.20
2022-10-31T04:24:51.783Z,6.13
2022-10-31T04:29:55.398Z,5.38
2022-10-31T04:35:00.086Z,5.22
2022-10-31T04:40:06.398Z,6.00
2022-10-31T04:45:28.037Z,6.60
2022-10-31T04:50:33.095Z,6.97
2022-10-31T04:55:38.103Z,8.45
2022-10-31T05:00:57.368Z,7.28
2022-10-31T05:06:02.185Z,6.40
2022-10-31T05:11:07.447Z,10.43
2022-10-31T05:16:11.207Z,6.07
2022-10-31T05:21:36.188Z,7.25
2022-10-31T05:26:40.463Z,8.77
2022-10-31T05:31:43.797Z,8.45
2022-10-31T05:37:08.404Z,6.72
2022-10-31T05:42:12.269Z,7.60
2022-10-31T05:47:15.536Z,8.95
2022-10-31T05:52:39.025Z,7.20
2022-10-31T05:57:57.662Z,7.13
2022-10-31T06:03:02.053Z,6.60
2022-10-31T06:08:39.246Z,6.10
2022-10-31T06:13:47.714Z,5.18
2022-10-31T06:18:57.044Z,6.13
2022-10-31T06:24:01.759Z,7.78
2022-10-31T06:29:28.202Z,7.65
2022-10-31T06:34:49.159Z,5.50
2022-10-31T06:39:54.171Z,6.07
2022-10-31T06:44:57.650Z,5.10
2022-10-31T06:50:19.188Z,5.72
2022-10-31T06:55:26.105Z,5.35
2022-10-31T07:00:31.484Z,5.15
2022-10-31T07:05:44.231Z,5.85
2022-10-31T07:10:54.706Z,4.33
2022-10-31T07:16:03.008Z,4.68
2022-10-31T07:21:08.088Z,5.03
2022-10-31T07:26:13.521Z,4.20
2022-10-31T07:31:21.709Z,4.20
2022-10-31T07:36:25.306Z,4.03
2022-10-31T07:41:32.161Z,3.80
2022-10-31T07:46:35.874Z,4.00
2022-10-31T07:51:57.710Z,3.67
2022-10-31T07:57:24.162Z,3.30
2022-10-31T08:02:28.471Z,4.00
2022-10-31T08:07:32.239Z,3.30
2022-10-31T09:14:42.358Z,4.57
2022-10-31T09:20:24.211Z,4.40
2022-10-31T09:25:29.727Z,5.00
2022-10-31T09:31:09.548Z,5.13
2022-10-31T09:36:27.142Z,4.22
2022-10-31T09:41:41.979Z,5.10
2022-10-31T09:46:57.847Z,5.07
2022-10-31T09:52:07.559Z,5.00
2022-10-31T09:57:14.643Z,6.60
2022-10-31T10:02:26.573Z,5.88
2022-10-31T10:07:41.120Z,7.65
2022-10-31T10:13:29.987Z,8.30
2022-10-31T10:18:47.067Z,9.02
2022-10-31T10:24:01.256Z,8.98
2022-10-31T10:29:13.591Z,11.70
2022-10-31T10:34:23.323Z,11.73
2022-10-31T10:39:31.959Z,11.00
2022-10-31T10:44:53.153Z,10.40
2022-10-31T10:49:58.123Z,11.07
2022-10-31T10:55:07.094Z,11.48
2022-10-31T11:00:20.390Z,11.82
2022-10-31T11:05:35.489Z,13.48
2022-10-31T11:10:39.384Z,12.80
2022-10-31T11:15:55.938Z,15.27
2022-10-31T11:21:03.780Z,13.03
2022-10-31T11:26:18.644Z,14.25
2022-10-31T11:31:22.100Z,16.07
2022-10-31T11:36:29.264Z,16.83
2022-10-31T11:41:34.824Z,16.23
2022-10-31T11:46:40.497Z,17.93
2022-10-31T11:51:49.838Z,16.95
2022-10-31T11:56:53.956Z,16.75
2022-10-31T12:01:59.716Z,18.73
2022-10-31T12:07:04.834Z,19.42
2022-10-31T12:12:33.163Z,19.73
2022-10-31T12:17:45.849Z,18.67
2022-10-31T12:22:59.643Z,20.77
2022-10-31T12:28:15.725Z,21.45
2022-10-31T12:33:49.600Z,22.67
2022-10-31T12:39:29.435Z,21.73
2022-10-31T12:44:59.251Z,23.40
2022-10-31T12:50:13.505Z,23.50
2022-10-31T12:55:45.568Z,22.45
2022-10-31T13:00:53.901Z,23.97
2022-10-31T13:06:01.212Z,22.40
2022-10-31T13:11:11.997Z,21.10
2022-10-31T13:16:20.820Z,22.83
2022-10-31T13:21:27.331Z,22.17
2022-10-31T13:26:39.511Z,22.80
2022-10-31T13:31:43.680Z,26.10
2022-10-31T13:36:55.626Z,27.33
2022-10-31T13:42:05.432Z,27.60
2022-10-31T13:47:26.040Z,28.53
2022-10-31T13:52:30.205Z,28.27
2022-10-31T13:57:41.156Z,30.40
2022-10-31T14:02:50.720Z,26.63
2022-10-31T14:07:55.589Z,28.08
2022-10-31T14:13:09.440Z,30.45
2022-10-31T14:18:24.658Z,31.27
2022-10-31T14:23:50.908Z,29.50
2022-10-31T14:29:00.087Z,28.52
2022-10-31T14:34:08.627Z,27.83
2022-10-31T14:39:20.096Z,27.25
2022-10-31T14:44:49.616Z,24.85
2022-10-31T14:50:19.288Z,28.05
2022-10-31T14:55:23.630Z,32.22
2022-10-31T15:00:30.879Z,28.13
2022-10-31T15:05:35.301Z,29.23
2022-10-31T15:10:40.584Z,29.55
2022-10-31T15:15:51.194Z,28.95
2022-10-31T15:20:57.211Z,29.58
2022-10-31T15:26:01.770Z,30.27
2022-10-31T15:31:06.834Z,33.13
2022-10-31T15:36:24.098Z,41.27
2022-10-31T15:41:36.600Z,38.92
2022-10-31T15:46:41.525Z,40.97
2022-10-31T15:51:44.906Z,40.53
2022-10-31T15:56:48.321Z,37.17
2022-10-31T16:02:03.292Z,38.90
2022-10-31T16:07:22.662Z,49.65
2022-10-31T16:12:36.006Z,56.28
2022-10-31T16:17:45.132Z,47.47
2022-10-31T16:22:52.203Z,48.90
2022-10-31T16:27:58.660Z,45.95
2022-10-31T16:33:03.620Z,44.13
2022-10-31T16:38:07.885Z,39.72
2022-10-31T16:43:15.554Z,43.38
2022-10-31T16:48:23.585Z,39.10
2022-10-31T16:59:10.952Z,45.07
2022-10-31T17:04:19.514Z,52.30
2022-10-31T17:09:23.136Z,49.38
2022-10-31T17:14:26.896Z,41.35
2022-10-31T17:19:31.633Z,40.90
2022-10-31T17:24:35.086Z,34.63
2022-10-31T17:29:38.515Z,36.92
2022-10-31T17:34:44.082Z,36.37
2022-10-31T17:39:48.827Z,31.35
2022-10-31T17:44:52.470Z,32.30
2022-10-31T17:49:57.279Z,36.20
2022-10-31T17:55:00.554Z,33.10
2022-10-31T18:00:04.871Z,34.80
2022-10-31T18:05:11.107Z,33.95
2022-10-31T18:10:14.464Z,31.02
2022-10-31T18:15:18.295Z,35.83
2022-10-31T18:20:23.384Z,42.23
2022-10-31T18:25:26.646Z,37.40
2022-10-31T18:30:29.939Z,51.38
2022-10-31T18:35:36.977Z,95.55
2022-10-31T18:40:40.551Z,42.50
2022-10-31T18:45:49.439Z,35.00
2022-10-31T18:50:58.036Z,95.35
2022-10-31T18:56:02.007Z,52.93
2022-10-31T19:01:08.527Z,41.50
2022-10-31T19:06:13.608Z,42.67
2022-10-31T19:11:17.037Z,44.00
2022-10-31T19:16:20.481Z,43.73
2022-10-31T19:21:26.291Z,45.53
2022-10-31T19:26:30.533Z,47.55
2022-10-31T19:31:34.679Z,50.28
2022-10-31T19:36:41.134Z,49.25
2022-10-31T19:41:45.250Z,50.67
2022-10-31T19:46:53.440Z,56.30
2022-10-31T19:51:59.549Z,57.92
2022-10-31T19:57:03.938Z,50.72
2022-10-31T20:02:08.077Z,47.30
2022-10-31T20:07:13.896Z,42.70
2022-10-31T20:12:17.781Z,45.38
2022-10-31T20:17:22.050Z,42.43
2022-10-31T20:22:27.480Z,37.33
2022-10-31T20:27:31.994Z,34.60
2022-10-31T20:32:36.022Z,38.63
2022-10-31T20:37:42.216Z,37.57
2022-10-31T20:42:46.081Z,48.72
2022-10-31T20:47:49.859Z,45.42
2022-10-31T20:52:55.125Z,37.92
2022-10-31T20:57:58.984Z,34.65
2022-10-31T21:03:02.462Z,27.37
2022-10-31T21:08:07.859Z,26.58
2022-10-31T21:13:11.181Z,24.08
2022-10-31T21:18:15.387Z,24.40
2022-10-31T21:23:20.182Z,22.88
2022-10-31T21:28:23.512Z,28.00
2022-10-31T21:33:26.768Z,26.92
2022-10-31T21:38:31.451Z,26.48
2022-10-31T21:43:37.017Z,35.85
2022-10-31T21:48:42.237Z,29.87
2022-10-31T21:54:04.770Z,34.20
2022-10-31T21:59:08.586Z,31.88
2022-10-31T22:04:12.095Z,31.40
2022-10-31T22:09:18.859Z,33.05
2022-10-31T22:14:22.110Z,30.35
2022-10-31T22:19:25.399Z,29.05
2022-10-31T22:24:30.068Z,41.63
2022-10-31T22:29:35.127Z,32.53
2022-10-31T22:34:38.412Z,38.10
2022-10-31T22:39:43.806Z,39.25
2022-10-31T22:44:47.374Z,36.90
2022-10-31T22:49:51.278Z,31.83
2022-10-31T22:54:58.469Z,28.10
2022-10-31T23:00:02.679Z,24.42
2022-10-31T23:05:06.562Z,20.98
2022-10-31T23:10:11.643Z,24.30
2022-10-31T23:15:14.984Z,22.60
2022-10-31T23:20:18.347Z,23.67
2022-10-31T23:25:40.683Z,19.48
2022-10-31T23:30:46.857Z,21.85
2022-10-31T23:35:50.326Z,23.80
2022-10-31T23:40:55.170Z,26.58
2022-10-31T23:45:58.730Z,24.40
2022-10-31T23:51:02.270Z,20.38
2022-10-31T23:56:07.807Z,27.50
